Hadlyme, Connecticut
Current Conditions -  °F | °C
As of 3:35 PM on Friday 28 Nov 2014 (Local Time) from KSNC Reporting Station
Scattered Clouds Scattered Clouds  
Wind Chill: 28°   Ceiling: Unl
Heat Index: 34°   Visibility: 10mi
Dew Point: 19°   Wind: 7mph
Humidity: 56%   Direction: 330°NNW
Pressure: 30.12"   Gusts: NA
Location:  41.42°N, 72.41°W
Report Text: KSNC 282035Z AUTO 33006KT 10SM SCT045 01/M07 A3012 RMK AO2
Loading
Personal Weather Stations






























Interactive Weather Map New forecast layout! Learn more

10-Day Weather Forecast

Advertisements
Track Severe Weather on mobile